Time;durP1;ratioP1;P1;durP2;ratioP2;P2;SDS_P1;SDS_P2;PMS_P1;PMS_P2;Temp;Humidity;BMP_temperature;BMP_pressure;BME280_temperature;BME280_humidity;BME280_pressure;Samples;Min_cycle;Max_cycle;Signal;HPM_P1;HPM_P2
2021/10/29 00:00:08;;;;;;;6.75;2.72;;;;;;;21.00;47.29;100892.38;5072324;28;20475;-61
2021/10/29 00:02:33;;;;;;;6.68;2.90;;;;;;;20.99;47.22;100885.38;5073677;28;20098;-61
2021/10/29 00:04:58;;;;;;;6.22;2.92;;;;;;;20.99;47.09;100888.03;5073205;28;20399;-61
2021/10/29 00:07:25;;;;;;;7.38;3.33;;;;;;;20.98;47.02;100891.66;5072575;28;20028;-60
2021/10/29 00:09:50;;;;;;;7.22;3.00;;;;;;;20.97;47.02;100887.34;5073302;28;20040;-61
2021/10/29 00:12:18;;;;;;;8.57;3.78;;;;;;;20.94;47.03;100890.28;5072867;28;20044;-61
2021/10/29 00:14:43;;;;;;;6.50;3.03;;;;;;;20.95;46.85;100899.88;5072552;28;20036;-61
2021/10/29 00:17:08;;;;;;;6.38;2.83;;;;;;;20.92;47.00;100894.88;5072861;28;20078;-61
2021/10/29 00:19:34;;;;;;;6.95;3.35;;;;;;;20.90;47.13;100887.06;5073171;28;20076;-61
2021/10/29 00:22:00;;;;;;;9.63;3.33;;;;;;;20.89;47.02;100889.88;5071724;28;20070;-61
2021/10/29 00:24:26;;;;;;;8.00;2.97;;;;;;;20.87;46.92;100886.50;5072986;28;20032;-61
2021/10/29 00:26:51;;;;;;;8.20;3.00;;;;;;;20.85;46.85;100886.66;5072932;28;20096;-61
2021/10/29 00:29:17;;;;;;;7.97;3.03;;;;;;;20.84;46.90;100887.66;5072037;28;20107;-61
2021/10/29 00:31:42;;;;;;;8.35;3.15;;;;;;;20.83;46.91;100884.16;5073323;28;20059;-61
2021/10/29 00:34:12;;;;;;;7.22;2.78;;;;;;;20.82;47.06;100890.44;5071907;28;20448;-61
2021/10/29 00:36:40;;;;;;;6.95;3.15;;;;;;;20.81;46.70;100885.28;5072946;28;20127;-62
2021/10/29 00:39:05;;;;;;;9.60;3.10;;;;;;;20.81;46.97;100878.16;5072650;28;20020;-60
2021/10/29 00:41:34;;;;;;;8.50;2.90;;;;;;;20.80;47.10;100876.47;5071858;28;20533;-61
2021/10/29 00:44:00;;;;;;;7.07;2.92;;;;;;;20.79;46.73;100877.47;5072468;28;20041;-62
2021/10/29 00:46:26;;;;;;;9.40;3.25;;;;;;;20.79;46.66;100869.53;5072805;28;20423;-60
2021/10/29 00:48:57;;;;;;;7.75;3.50;;;;;;;20.79;46.77;100876.63;5071775;28;20040;-60
2021/10/29 00:51:23;;;;;;;8.35;4.10;;;;;;;20.78;46.66;100867.84;5072468;28;20020;-61
2021/10/29 00:53:49;;;;;;;8.07;3.60;;;;;;;20.77;46.67;100868.81;5072507;28;20039;-61
2021/10/29 00:56:16;;;;;;;7.10;3.25;;;;;;;20.77;46.86;100870.63;5071078;28;20040;-62
2021/10/29 00:58:42;;;;;;;6.60;2.97;;;;;;;20.75;46.61;100865.47;5072385;28;20498;-60
2021/10/29 01:01:08;;;;;;;8.30;3.13;;;;;;;20.73;46.58;100871.88;5072000;28;20025;-60
2021/10/29 01:03:37;;;;;;;7.28;3.00;;;;;;;20.73;46.59;100866.59;5070942;28;20505;-60
2021/10/29 01:06:02;;;;;;;8.55;3.22;;;;;;;20.74;46.76;100863.81;5071722;28;20107;-61
2021/10/29 01:08:28;;;;;;;6.88;3.28;;;;;;;20.73;46.65;100874.53;5072025;28;20036;-61
2021/10/29 01:10:53;;;;;;;8.95;2.95;;;;;;;20.73;46.40;100867.44;5070924;28;20037;-63
2021/10/29 01:13:19;;;;;;;8.13;3.30;;;;;;;20.72;46.63;100863.13;5071598;28;20120;-60
2021/10/29 01:15:44;;;;;;;7.53;3.10;;;;;;;20.72;46.59;100864.94;5071604;28;20357;-61
2021/10/29 01:18:10;;;;;;;9.27;3.28;;;;;;;20.68;46.53;100860.88;5070665;28;20021;-60
2021/10/29 01:20:36;;;;;;;9.35;3.33;;;;;;;20.68;46.45;100866.19;5071093;28;20036;-60
2021/10/29 01:23:02;;;;;;;7.30;3.53;;;;;;;20.69;46.37;100865.22;5071352;28;20502;-60
2021/10/29 01:25:27;;;;;;;8.80;3.35;;;;;;;20.68;46.43;100859.09;5071586;28;20059;-60
2021/10/29 01:27:53;;;;;;;6.53;2.85;;;;;;;20.67;46.39;100864.53;5071614;28;20048;-61
2021/10/29 01:30:18;;;;;;;6.95;3.20;;;;;;;20.65;46.47;100860.19;5070767;28;20077;-60
2021/10/29 01:32:44;;;;;;;7.18;2.78;;;;;;;20.63;46.48;100856.84;5071633;28;20028;-60
2021/10/29 01:35:14;;;;;;;7.60;3.20;;;;;;;20.62;46.22;100855.16;5073191;28;20029;-61
2021/10/29 01:37:41;;;;;;;6.68;3.42;;;;;;;20.61;46.27;100856.13;5075131;28;20040;-60
2021/10/29 01:40:10;;;;;;;5.35;3.17;;;;;;;20.61;46.13;100855.28;5075651;28;20040;-60
2021/10/29 01:42:36;;;;;;;6.70;3.25;;;;;;;20.60;46.34;100851.81;5076097;28;20044;-60
2021/10/29 01:45:04;;;;;;;5.63;2.85;;;;;;;20.59;46.24;100844.00;5074990;28;20033;-61
2021/10/29 01:47:29;;;;;;;6.03;2.80;;;;;;;20.58;46.20;100842.34;5076019;28;20027;-61
2021/10/29 01:49:55;;;;;;;7.60;2.75;;;;;;;20.57;46.29;100832.72;5075854;28;20040;-61
2021/10/29 01:52:20;;;;;;;6.22;3.05;;;;;;;20.55;46.27;100827.56;5074716;28;20056;-61
2021/10/29 01:54:45;;;;;;;7.65;3.40;;;;;;;20.54;46.29;100825.91;5075954;28;20040;-61
2021/10/29 01:57:11;;;;;;;6.07;2.92;;;;;;;20.54;46.13;100825.91;5075460;28;20037;-61
2021/10/29 01:59:42;;;;;;;7.35;3.22;;;;;;;20.55;46.19;100829.38;5075066;28;20025;-60
2021/10/29 02:02:07;;;;;;;6.25;2.75;;;;;;;20.54;46.19;100825.06;5075432;28;20032;-60
2021/10/29 02:04:32;;;;;;;6.80;2.90;;;;;;;20.52;46.06;100822.56;5075679;28;20024;-61
2021/10/29 02:06:58;;;;;;;5.63;2.90;;;;;;;20.51;46.03;100807.66;5074501;28;20016;-61
2021/10/29 02:09:26;;;;;;;5.57;2.80;;;;;;;20.53;46.21;100815.44;5075427;28;20681;-61
2021/10/29 02:11:51;;;;;;;6.35;3.10;;;;;;;20.51;46.18;100810.28;5075754;28;20098;-61
2021/10/29 02:14:16;;;;;;;5.78;2.70;;;;;;;20.51;46.05;100809.47;5074464;28;20492;-61
2021/10/29 02:16:43;;;;;;;5.65;3.03;;;;;;;20.50;46.15;100810.44;5075223;28;20028;-61
2021/10/29 02:19:08;;;;;;;5.47;2.83;;;;;;;20.46;46.10;100800.13;5075061;28;20025;-61
2021/10/29 02:21:34;;;;;;;6.38;2.75;;;;;;;20.47;45.99;100801.81;5074380;28;20062;-60
2021/10/29 02:23:59;;;;;;;5.65;2.83;;;;;;;20.47;45.99;100798.31;5075150;28;20055;-60
2021/10/29 02:26:25;;;;;;;4.87;2.43;;;;;;;20.46;45.92;100794.00;5075386;28;20040;-61
2021/10/29 02:28:51;;;;;;;5.63;2.85;;;;;;;20.46;46.05;100788.72;5074615;28;20286;-62
2021/10/29 02:31:16;;;;;;;6.80;3.10;;;;;;;20.44;46.03;100786.22;5074806;28;20032;-61
2021/10/29 02:33:42;;;;;;;5.50;2.90;;;;;;;20.41;46.00;100783.84;5074370;28;20386;-61
2021/10/29 02:36:10;;;;;;;6.07;2.83;;;;;;;20.43;46.00;100783.69;5074653;28;20423;-61
2021/10/29 02:38:35;;;;;;;5.18;2.70;;;;;;;20.41;45.98;100788.28;5075204;28;20020;-61
2021/10/29 02:41:04;;;;;;;5.77;3.00;;;;;;;20.40;46.07;100786.63;5074054;28;20029;-62
2021/10/29 02:43:30;;;;;;;5.55;3.10;;;;;;;20.39;46.00;100788.41;5075094;28;20292;-61
2021/10/29 02:45:55;;;;;;;6.05;2.67;;;;;;;20.40;46.04;100784.81;5074705;28;20383;-61
2021/10/29 02:48:21;;;;;;;5.28;2.75;;;;;;;20.40;45.97;100779.50;5073908;28;20035;-60
2021/10/29 02:50:49;;;;;;;4.60;2.72;;;;;;;20.40;45.86;100781.34;5074793;28;20036;-60
2021/10/29 02:53:30;;;;;;;5.03;2.50;;;;;;;20.38;45.95;100778.81;5074290;28;20049;-61
2021/10/29 02:55:55;;;;;;;5.03;2.30;;;;;;;20.35;45.78;100775.63;5073825;28;20444;-61
2021/10/29 02:58:20;;;;;;;5.30;2.70;;;;;;;20.34;45.84;100779.25;5074576;28;20490;-61
2021/10/29 03:00:46;;;;;;;4.57;2.58;;;;;;;20.34;45.73;100779.25;5074599;28;20775;-61
2021/10/29 03:03:13;;;;;;;4.47;2.47;;;;;;;20.33;45.79;100772.28;5073510;28;20093;-60
2021/10/29 03:05:41;;;;;;;6.70;2.88;;;;;;;20.31;45.65;100772.41;5074677;28;20288;-60
2021/10/29 03:08:06;;;;;;;5.20;2.53;;;;;;;20.32;45.63;100774.09;5073300;28;20383;-61
2021/10/29 03:10:32;;;;;;;5.63;2.70;;;;;;;20.30;45.79;100770.75;5073822;28;20491;-61
2021/10/29 03:12:58;;;;;;;4.82;2.30;;;;;;;20.29;45.63;100769.09;5074069;28;20025;-61
2021/10/29 03:15:23;;;;;;;4.78;2.55;;;;;;;20.27;45.70;100774.50;5074322;28;20045;-61
2021/10/29 03:17:48;;;;;;;6.22;2.53;;;;;;;20.27;45.73;100766.56;5073517;28;20056;-61
2021/10/29 03:20:13;;;;;;;6.77;3.00;;;;;;;20.25;45.61;100765.88;5073850;28;20066;-61
2021/10/29 03:22:41;;;;;;;4.80;2.37;;;;;;;20.26;45.84;100767.53;5074368;28;20330;-61
2021/10/29 03:25:07;;;;;;;4.50;2.25;;;;;;;20.24;45.67;100766.84;5073064;28;20732;-60
2021/10/29 03:27:33;;;;;;;4.72;2.58;;;;;;;20.23;45.66;100765.16;5074254;28;20031;-60
2021/10/29 03:29:59;;;;;;;4.40;2.40;;;;;;;20.22;45.70;100762.66;5072969;28;20047;-60
2021/10/29 03:32:27;;;;;;;4.72;2.30;;;;;;;20.19;45.71;100758.50;5074099;28;20032;-60
2021/10/29 03:34:52;;;;;;;5.10;2.63;;;;;;;20.18;45.76;100764.75;5074144;28;20021;-60
2021/10/29 03:40:21;;;;;;;5.85;2.55;;;;;;;20.18;45.60;100763.94;5073875;28;20024;-60
2021/10/29 03:43:02;;;;;;;4.97;2.28;;;;;;;20.18;45.97;100759.47;5073782;28;20025;-61
2021/10/29 03:45:28;;;;;;;4.75;3.00;;;;;;;20.18;45.61;100758.66;5073258;28;20074;-60
2021/10/29 03:50:43;;;;;;;4.45;2.28;;;;;;;20.16;45.41;100742.09;5069665;28;20622;-60
2021/10/29 03:53:22;;;;;;;4.43;2.70;;;;;;;20.16;45.42;100742.91;5072271;28;20044;-61
2021/10/29 03:55:48;;;;;;;5.90;2.50;;;;;;;20.14;45.57;100739.59;5073653;28;20051;-61
2021/10/29 03:58:13;;;;;;;4.97;2.42;;;;;;;20.13;45.70;100743.19;5071972;28;20519;-61
2021/10/29 04:00:38;;;;;;;6.07;2.60;;;;;;;20.10;45.43;100741.66;5073642;28;20387;-61
2021/10/29 04:03:08;;;;;;;5.75;2.55;;;;;;;20.09;45.60;100744.44;5073179;28;20701;-62
2021/10/29 04:05:34;;;;;;;5.25;2.70;;;;;;;20.09;45.46;100747.09;5072787;28;20382;-61
2021/10/29 04:08:00;;;;;;;6.65;2.63;;;;;;;20.09;45.53;100742.66;5073035;28;20025;-61
2021/10/29 04:10:28;;;;;;;4.53;2.50;;;;;;;20.08;45.69;100742.78;5073503;28;20138;-60
2021/10/29 04:12:56;;;;;;;5.40;2.78;;;;;;;20.08;45.43;100743.59;5072593;28;20033;-60
2021/10/29 04:15:22;;;;;;;5.15;2.38;;;;;;;20.08;45.63;100738.31;5073341;28;20199;-60
2021/10/29 04:17:48;;;;;;;5.63;2.72;;;;;;;20.07;45.47;100741.94;5073277;28;20442;-60
2021/10/29 04:20:13;;;;;;;4.30;2.42;;;;;;;20.08;45.52;100745.44;5072024;28;20059;-61
2021/10/29 04:22:39;;;;;;;4.70;2.40;;;;;;;20.06;45.54;100737.63;5072897;28;20020;-61
2021/10/29 04:25:07;;;;;;;4.75;2.20;;;;;;;20.08;45.62;100748.06;5072865;28;20040;-61
2021/10/29 04:27:35;;;;;;;4.03;2.20;;;;;;;20.07;45.80;100739.28;5072732;28;20028;-61
2021/10/29 04:30:01;;;;;;;5.32;2.35;;;;;;;20.07;45.45;100739.28;5072705;28;20036;-61
2021/10/29 04:32:26;;;;;;;4.20;2.38;;;;;;;20.06;45.61;100739.41;5073199;28;20033;-60
2021/10/29 04:34:52;;;;;;;3.97;2.45;;;;;;;20.06;45.59;100742.91;5072168;28;20100;-61
2021/10/29 04:37:18;;;;;;;5.07;2.05;;;;;;;20.08;45.66;100729.56;5072778;28;20147;-60
2021/10/29 04:39:46;;;;;;;4.75;2.35;;;;;;;20.07;45.24;100727.88;5073288;28;20032;-61
2021/10/29 04:42:13;;;;;;;4.32;2.28;;;;;;;20.04;45.55;100715.75;5072137;28;20035;-60
2021/10/29 04:44:41;;;;;;;4.00;2.10;;;;;;;20.01;45.76;100713.41;5073009;28;20036;-60
2021/10/29 04:47:06;;;;;;;5.03;2.45;;;;;;;20.01;45.69;100707.28;5072258;28;20054;-61
2021/10/29 04:49:32;;;;;;;4.20;2.13;;;;;;;19.99;45.72;100715.34;5072383;28;20024;-60
2021/10/29 04:51:58;;;;;;;4.97;2.30;;;;;;;19.98;45.68;100710.19;5072066;28;20082;-60
2021/10/29 04:54:24;;;;;;;4.45;2.30;;;;;;;19.97;45.75;100697.97;5072134;28;20037;-60
2021/10/29 04:56:50;;;;;;;4.32;2.28;;;;;;;19.97;45.78;100698.78;5072765;28;20158;-60
2021/10/29 04:59:17;;;;;;;4.78;2.35;;;;;;;19.98;45.71;100700.47;5072420;28;20940;-61
2021/10/29 05:01:44;;;;;;;4.93;2.33;;;;;;;19.98;45.59;100699.63;5071806;28;20115;-61
2021/10/29 05:04:10;;;;;;;4.80;2.28;;;;;;;19.96;45.89;100697.09;5072051;28;20020;-61
2021/10/29 05:06:35;;;;;;;6.15;2.50;;;;;;;19.97;45.78;100693.50;5072835;28;20090;-61
2021/10/29 05:09:10;;;;;;;4.50;2.47;;;;;;;19.96;45.64;100702.41;5070608;28;20032;-60
2021/10/29 05:11:35;;;;;;;4.20;2.15;;;;;;;19.94;45.67;100691.97;5072348;28;20056;-61
2021/10/29 05:14:03;;;;;;;4.63;2.20;;;;;;;19.96;45.62;100698.94;5071996;28;20060;-61
2021/10/29 05:16:29;;;;;;;4.88;2.40;;;;;;;19.95;45.71;100687.53;5071374;28;20525;-61
2021/10/29 05:18:54;;;;;;;5.70;2.30;;;;;;;19.94;45.73;100681.38;5071654;28;20127;-61
2021/10/29 05:21:20;;;;;;;4.40;2.25;;;;;;;19.94;45.67;100681.38;5072246;28;20036;-60
2021/10/29 05:23:45;;;;;;;4.82;2.30;;;;;;;19.94;45.53;100678.72;5071418;28;20033;-62
2021/10/29 05:26:11;;;;;;;4.70;2.60;;;;;;;19.97;45.89;100677.63;5071883;28;20069;-61
2021/10/29 05:28:36;;;;;;;3.95;2.10;;;;;;;20.07;45.93;100689.03;5072080;28;20021;-62
2021/10/29 05:31:01;;;;;;;4.07;2.08;;;;;;;20.20;46.18;100685.25;5071011;28;20025;-61
2021/10/29 05:33:27;;;;;;;4.20;2.10;;;;;;;20.30;46.25;100681.63;5072289;28;20052;-61
2021/10/29 05:35:52;;;;;;;4.43;2.00;;;;;;;20.39;46.56;100677.25;5072624;28;20159;-61
2021/10/29 05:38:18;;;;;;;3.90;2.00;;;;;;;20.46;46.65;100677.53;5071186;28;20498;-61
2021/10/29 05:40:43;;;;;;;4.25;2.08;;;;;;;20.51;46.62;100675.28;5072186;28;20021;-60
2021/10/29 05:43:08;;;;;;;5.03;1.98;;;;;;;20.57;46.46;100677.38;5071677;28;20025;-60
2021/10/29 05:45:34;;;;;;;3.75;2.00;;;;;;;20.62;46.44;100668.97;5071333;28;20063;-61
2021/10/29 05:50:52;;;;;;;3.50;1.80;;;;;;;20.77;46.15;100667.53;5071513;28;20045;-62
2021/10/29 05:53:34;;;;;;;4.07;1.80;;;;;;;20.81;46.06;100663.63;5071713;28;20040;-62
2021/10/29 05:55:59;;;;;;;3.70;2.00;;;;;;;20.86;45.92;100663.19;5071685;28;20032;-60
2021/10/29 05:58:26;;;;;;;4.23;1.77;;;;;;;20.89;45.87;100665.56;5071699;28;20020;-61
2021/10/29 06:00:52;;;;;;;5.03;2.33;;;;;;;20.88;44.98;100661.22;5072162;28;20296;-61
2021/10/29 06:03:17;;;;;;;4.75;1.98;;;;;;;20.89;45.07;100660.25;5071691;28;20036;-60
2021/10/29 06:05:42;;;;;;;4.47;2.10;;;;;;;20.88;45.20;100655.09;5071274;28;20404;-61
2021/10/29 06:08:10;;;;;;;3.92;2.00;;;;;;;20.89;45.59;100656.78;5071639;28;20016;-61
2021/10/29 06:10:35;;;;;;;3.42;1.90;;;;;;;20.93;45.58;100651.00;5071835;28;20108;-63
2021/10/29 06:13:03;;;;;;;4.75;2.17;;;;;;;20.96;45.63;100653.38;5070813;28;20446;-65
2021/10/29 06:15:29;;;;;;;3.92;2.10;;;;;;;21.00;45.47;100654.75;5071847;28;20047;-63
2021/10/29 06:17:54;;;;;;;3.70;1.90;;;;;;;20.98;45.67;100655.88;5071876;28;20033;-66
2021/10/29 06:20:21;;;;;;;4.15;2.20;;;;;;;21.00;45.66;100656.56;5071607;28;20384;-65
2021/10/29 06:22:52;;;;;;;3.67;1.55;;;;;;;21.00;45.85;100672.47;5075465;28;20033;-64
2021/10/29 06:25:20;;;;;;;4.07;1.83;;;;;;;21.01;45.90;100663.53;5075014;28;20055;-61
2021/10/29 06:30:39;;;;;;;4.13;1.90;;;;;;;21.04;45.76;100665.88;5075420;28;20062;-63
2021/10/29 06:33:04;;;;;;;3.40;1.70;;;;;;;21.07;45.77;100662.94;5074012;28;20479;-64
2021/10/29 06:35:30;;;;;;;5.35;1.83;;;;;;;21.13;45.67;100658.88;5075075;28;20050;-63
2021/10/29 06:37:57;;;;;;;3.30;1.58;;;;;;;21.18;45.66;100662.72;5074825;28;20111;-64
2021/10/29 06:40:26;;;;;;;4.18;1.80;;;;;;;21.22;45.48;100665.06;5074460;28;20025;-63
2021/10/29 06:42:56;;;;;;;5.28;2.28;;;;;;;21.21;45.46;100664.25;5075326;28;20020;-62
2021/10/29 06:47:52;;;;;;;3.75;1.73;;;;;;;21.16;45.76;100662.03;5074255;28;20036;-65
2021/10/29 07:01:17;;;;;;;5.32;1.75;;;;;;;21.16;46.15;100643.50;5073781;28;20051;-62
2021/10/29 07:41:56;;;;;;;4.28;2.10;;;;;;;21.58;44.93;100649.22;5076934;28;20031;-62
2021/10/29 07:44:27;;;;;;;4.43;2.20;;;;;;;21.58;44.87;100644.75;5074194;28;20016;-62
2021/10/29 07:46:55;;;;;;;5.05;1.92;;;;;;;21.62;44.63;100645.28;5074897;28;20044;-63
2021/10/29 07:49:27;;;;;;;4.30;2.15;;;;;;;21.66;44.62;100644.81;5074222;28;20102;-64
2021/10/29 07:51:52;;;;;;;8.43;2.30;;;;;;;21.67;44.55;100649.16;5072943;28;20027;-63
2021/10/29 07:54:17;;;;;;;6.40;2.10;;;;;;;21.67;44.48;100649.16;5073442;28;20128;-64
2021/10/29 07:56:43;;;;;;;4.25;2.03;;;;;;;21.66;44.40;100657.25;5073720;28;20032;-62
2021/10/29 07:59:11;;;;;;;5.20;1.88;;;;;;;21.65;44.43;100656.44;5073174;28;20031;-62
2021/10/29 08:01:36;;;;;;;4.38;2.00;;;;;;;21.66;44.38;100649.31;5073659;28;20372;-62
2021/10/29 08:04:02;;;;;;;4.25;2.15;;;;;;;21.68;44.61;100653.47;5073719;28;20039;-61
2021/10/29 08:06:27;;;;;;;4.00;2.10;;;;;;;21.70;44.32;100648.03;5073414;28;20016;-61
2021/10/29 08:09:24;;;;;;;4.72;2.25;;;;;;;21.75;44.38;100653.69;5081501;28;20037;-62
2021/10/29 08:11:49;;;;;;;4.05;2.10;;;;;;;21.77;44.22;100635.78;5077073;28;20024;-62
2021/10/29 08:14:19;;;;;;;5.43;2.08;;;;;;;21.80;44.25;100632.84;5075647;28;20399;-62
2021/10/29 08:16:47;;;;;;;5.60;2.35;;;;;;;21.84;44.50;100625.41;5075452;28;20033;-62
2021/10/29 08:19:13;;;;;;;4.15;2.15;;;;;;;21.84;44.01;100622.75;5075448;28;20081;-63
2021/10/29 08:21:38;;;;;;;3.97;2.08;;;;;;;21.85;44.17;100611.97;5075315;28;20024;-62
2021/10/29 08:24:15;;;;;;;5.22;2.40;;;;;;;21.83;44.21;100608.66;5074599;28;20425;-62
2021/10/29 08:26:40;;;;;;;4.88;2.20;;;;;;;21.83;44.08;100616.63;5073604;28;20031;-63
2021/10/29 08:29:12;;;;;;;3.70;1.80;;;;;;;21.83;44.18;100610.50;5073399;28;20021;-64
2021/10/29 08:31:37;;;;;;;3.47;1.70;;;;;;;21.82;44.31;100608.81;5073393;28;20740;-67
2021/10/29 08:34:05;;;;;;;4.22;2.00;;;;;;;21.79;44.43;100603.81;5072447;28;20067;-64
2021/10/29 08:36:32;;;;;;;4.13;1.98;;;;;;;21.79;44.40;100601.16;5073325;28;20044;-66
2021/10/29 08:38:57;;;;;;;3.60;2.08;;;;;;;21.78;44.43;100599.50;5072621;28;20376;-68
2021/10/29 08:41:23;;;;;;;4.32;2.15;;;;;;;21.75;44.54;100603.31;5072268;28;20031;-66
2021/10/29 08:43:49;;;;;;;5.55;2.13;;;;;;;21.74;44.91;100597.16;5072785;28;20024;-63
2021/10/29 08:46:16;;;;;;;4.15;2.17;;;;;;;21.74;44.84;100599.78;5072406;28;20043;-63
2021/10/29 08:48:41;;;;;;;4.63;2.00;;;;;;;21.76;44.77;100593.50;5073989;28;20032;-64
2021/10/29 08:51:07;;;;;;;4.30;2.08;;;;;;;21.77;44.82;100596.00;5073201;28;20105;-62
2021/10/29 08:53:32;;;;;;;3.70;1.70;;;;;;;21.79;45.15;100590.56;5071969;28;20040;-66
2021/10/29 08:56:02;;;;;;;4.18;2.00;;;;;;;21.80;45.08;100589.56;5072632;28;20024;-64
2021/10/29 08:58:30;;;;;;;4.18;2.00;;;;;;;21.84;44.97;100585.59;5074087;28;20476;-64
2021/10/29 09:01:01;;;;;;;5.78;2.10;;;;;;;21.88;45.07;100576.38;5071996;28;20487;-63
2021/10/29 09:03:32;;;;;;;4.00;1.85;;;;;;;21.88;44.97;100568.41;5072781;28;20028;-63
2021/10/29 09:11:26;;;;;;;5.93;2.13;;;;;;;21.83;44.83;100558.25;5072110;28;20031;-63
2021/10/29 09:31:35;;;;;;;5.35;1.98;;;;;;;21.87;44.96;100541.06;5072287;28;20044;-62
2021/10/29 09:34:05;;;;;;;;;;;;;;;21.84;45.09;100538.72;5073162;28;20040;-63
2021/10/29 09:36:37;;;;;;;4.55;1.70;;;;;;;21.89;44.77;100543.56;5071595;28;20352;-65
2021/10/29 09:39:16;;;;;;;3.92;1.90;;;;;;;21.90;45.16;100543.41;5072040;28;20036;-63
2021/10/29 09:41:42;;;;;;;3.58;1.70;;;;;;;21.95;44.97;100534.94;5072877;28;20017;-64
2021/10/29 09:44:12;;;;;;;4.78;1.88;;;;;;;21.98;45.14;100555.03;5071777;28;20032;-63
2021/10/29 09:46:58;;;;;;;5.75;2.05;;;;;;;21.96;45.03;100544.56;5072454;28;20047;-63
2021/10/29 09:49:32;;;;;;;5.20;1.83;;;;;;;21.98;45.04;100539.94;5072480;28;20040;-63
2021/10/29 09:54:51;;;;;;;5.25;2.00;;;;;;;22.03;45.04;100539.47;5072432;28;20033;-63
2021/10/29 09:57:22;;;;;;;5.13;1.70;;;;;;;22.06;45.16;100533.84;5075129;28;20029;-63
2021/10/29 10:00:14;;;;;;;6.25;2.22;;;;;;;22.06;45.17;100540.00;5076066;28;20100;-64
2021/10/29 10:02:41;;;;;;;3.90;1.63;;;;;;;22.06;45.04;100537.34;5067510;28;20052;-63
2021/10/29 10:05:08;;;;;;;5.60;1.65;;;;;;;22.05;45.17;100538.31;5075329;28;20035;-63
2021/10/29 10:07:35;;;;;;;4.72;2.03;;;;;;;22.05;45.13;100532.19;5077163;28;20024;-63
2021/10/29 10:10:05;;;;;;;4.88;1.73;;;;;;;21.98;45.14;100525.84;5075283;28;20096;-62
2021/10/29 10:12:33;;;;;;;4.30;1.70;;;;;;;21.92;45.54;100532.59;5074854;28;20025;-61
2021/10/29 10:15:05;;;;;;;3.78;1.92;;;;;;;21.86;45.62;100520.81;5075335;28;20029;-63
2021/10/29 10:17:32;;;;;;;4.45;2.05;;;;;;;21.79;45.52;100530.38;5075502;28;20443;-62
2021/10/29 10:19:59;;;;;;;6.22;2.30;;;;;;;21.73;45.49;100523.88;5074400;28;20078;-63
2021/10/29 10:22:27;;;;;;;8.45;2.72;;;;;;;21.67;46.02;100524.50;5075306;28;20090;-62
2021/10/29 10:25:05;;;;;;;9.20;3.35;;;;;;;21.66;46.01;100529.97;5074601;28;20430;-61
2021/10/29 10:28:04;;;;;;;6.93;3.70;;;;;;;21.62;46.23;100531.25;5075575;28;20017;-62
2021/10/29 10:47:06;;;;;;;10.15;3.72;;;;;;;21.81;45.75;100509.00;5077227;28;20037;-63
2021/10/29 10:49:42;;;;;;;7.53;3.75;;;;;;;21.84;45.70;100506.88;5075163;28;20020;-62
2021/10/29 10:52:25;;;;;;;8.80;3.85;;;;;;;21.88;46.08;100504.75;5074391;28;20105;-62
2021/10/29 10:55:12;;;;;;;8.35;4.30;;;;;;;21.91;45.96;100499.13;5074693;28;20173;-63
2021/10/29 10:57:47;;;;;;;12.07;4.78;;;;;;;21.93;45.84;100497.13;5075626;28;20471;-63
2021/10/29 11:11:14;;;;;;;8.90;4.47;;;;;;;21.99;46.08;100458.53;5074716;28;20024;-65
2021/10/29 11:13:43;;;;;;;8.70;4.43;;;;;;;21.98;46.15;100459.50;5074696;28;20024;-66
2021/10/29 11:16:12;;;;;;;8.90;4.78;;;;;;;21.94;46.38;100453.72;5073480;28;20075;-65
2021/10/29 11:18:39;;;;;;;9.50;4.50;;;;;;;21.91;46.13;100446.88;5074696;28;20020;-65
2021/10/29 11:21:09;;;;;;;11.23;4.28;;;;;;;21.89;46.15;100430.31;5073349;28;20029;-65
2021/10/29 11:23:37;;;;;;;7.55;4.25;;;;;;;21.88;46.59;100430.47;5074623;28;20031;-65
2021/10/29 11:26:25;;;;;;;8.45;4.28;;;;;;;21.87;46.02;100427.00;5074101;28;20055;-63
2021/10/29 11:28:53;;;;;;;9.15;4.00;;;;;;;21.87;46.21;100413.72;5073939;28;20021;-64
2021/10/29 11:31:23;;;;;;;8.27;3.55;;;;;;;21.86;46.44;100412.06;5073964;28;20020;-66
2021/10/29 11:33:51;;;;;;;9.63;4.32;;;;;;;21.85;46.32;100405.06;5074264;28;20044;-65
2021/10/29 11:36:19;;;;;;;10.43;4.10;;;;;;;21.86;46.38;100395.31;5073412;28;20040;-63
2021/10/29 11:38:47;;;;;;;8.60;4.55;;;;;;;21.83;46.30;100393.81;5074266;28;20028;-64
2021/10/29 11:41:19;;;;;;;13.68;5.55;;;;;;;21.83;46.44;100399.09;5073787;28;20059;-65
2021/10/29 11:43:44;;;;;;;23.80;7.50;;;;;;;21.84;46.28;100405.22;5073267;28;20076;-64
2021/10/29 11:46:13;;;;;;;28.33;9.13;;;;;;;21.86;46.51;100409.41;5073649;28;20476;-64
2021/10/29 11:48:57;;;;;;;28.13;8.90;;;;;;;21.86;46.81;100405.94;5074300;28;20273;-64
2021/10/29 11:51:23;;;;;;;23.80;7.90;;;;;;;21.90;47.13;100404.59;5073492;28;20036;-64
2021/10/29 11:54:11;;;;;;;24.42;8.23;;;;;;;21.92;47.16;100410.56;5073851;28;20041;-65
2021/10/29 11:56:42;;;;;;;25.33;8.55;;;;;;;21.91;47.16;100393.81;5073012;28;20071;-65
2021/10/29 12:01:54;;;;;;;27.38;8.30;;;;;;;21.93;47.42;100372.44;5073930;28;20033;-65
2021/10/29 12:09:42;;;;;;;20.38;7.30;;;;;;;21.91;48.32;100380.56;5073663;28;20028;-65
2021/10/29 12:12:12;;;;;;;25.55;8.00;;;;;;;21.91;48.31;100393.00;5072309;28;20059;-66
2021/10/29 12:14:46;;;;;;;26.90;8.95;;;;;;;21.92;48.39;100376.94;5073227;28;20480;-67
2021/10/29 12:17:17;;;;;;;22.90;9.57;;;;;;;21.90;49.20;100365.66;5073141;28;20104;-64
2021/10/29 12:19:45;;;;;;;20.05;6.70;;;;;;;21.87;49.12;100370.44;5072998;28;20070;-66
2021/10/29 12:25:01;;;;;;;19.48;7.43;;;;;;;21.80;49.38;100356.16;5072716;28;20039;-65
2021/10/29 12:27:33;;;;;;;16.80;6.97;;;;;;;21.78;49.71;100347.50;5073064;28;20056;-67
2021/10/29 12:30:15;;;;;;;20.75;7.55;;;;;;;21.77;49.61;100354.66;5072679;28;20024;-64
2021/10/29 12:33:25;;;;;;;19.83;6.70;;;;;;;21.79;49.81;100351.84;5072267;28;20484;-65
2021/10/29 12:39:04;;;;;;;15.68;6.40;;;;;;;21.76;50.27;100337.06;5072331;28;20151;-65
2021/10/29 13:03:55;;;;;;;14.45;5.80;;;;;;;21.73;50.52;100317.03;5072665;28;20446;-65
2021/10/29 13:06:20;;;;;;;11.85;5.03;;;;;;;21.74;50.89;100318.66;5072513;28;20119;-65
2021/10/29 13:08:49;;;;;;;11.95;5.43;;;;;;;21.77;50.92;100312.22;5071853;28;20500;-67
2021/10/29 13:11:17;;;;;;;11.05;4.43;;;;;;;21.76;51.03;100301.78;5072146;28;20565;-67
2021/10/29 13:13:47;;;;;;;14.07;4.78;;;;;;;21.75;51.03;100308.91;5071623;28;20039;-64
2021/10/29 13:16:15;;;;;;;11.98;4.68;;;;;;;21.77;51.07;100314.88;5072090;28;20112;-65
2021/10/29 13:19:03;;;;;;;9.88;4.45;;;;;;;21.79;50.81;100310.22;5072391;28;20024;-66
2021/10/29 13:24:33;;;;;;;11.45;4.55;;;;;;;21.90;50.95;100304.66;5072246;28;20098;-63
2021/10/29 13:51:40;;;;;;;9.30;3.55;;;;;;;22.59;48.31;100306.22;5072160;28;20035;-65
2021/10/29 14:30:26;;;;;;;6.95;2.72;;;;;;;22.42;48.34;100335.41;5071622;28;20487;-63
2021/10/29 14:33:03;;;;;;;6.32;2.72;;;;;;;22.41;48.48;100333.78;5070799;28;20081;-64
2021/10/29 14:35:38;;;;;;;6.80;2.63;;;;;;;22.39;48.34;100343.69;5071796;28;20035;-65
2021/10/29 14:38:31;;;;;;;5.65;2.40;;;;;;;22.36;48.57;100346.69;5070666;28;20055;-64
2021/10/29 14:41:13;;;;;;;6.03;2.00;;;;;;;22.36;48.26;100349.34;5071486;28;20046;-63
2021/10/29 14:46:51;;;;;;;7.53;2.40;;;;;;;22.21;48.73;100350.97;5061108;28;20123;-64
2021/10/29 14:49:38;;;;;;;6.35;2.30;;;;;;;22.19;48.80;100347.63;5078395;28;20040;-61
2021/10/29 15:24:53;;;;;;;5.47;1.90;;;;;;;22.48;47.25;100330.44;5051287;28;20044;-64
2021/10/29 15:27:50;;;;;;;5.68;2.08;;;;;;;22.47;47.20;100334.91;5073556;28;20039;-63
2021/10/29 15:30:31;;;;;;;4.97;2.10;;;;;;;22.45;47.21;100335.09;5074281;28;20051;-61
2021/10/29 15:46:17;;;;;;;5.30;2.03;;;;;;;22.24;47.32;100361.25;5073964;28;20077;-60
2021/10/29 15:48:53;;;;;;;4.28;1.92;;;;;;;22.15;47.69;100360.41;5073075;28;20021;-63
2021/10/29 15:51:19;;;;;;;4.85;1.95;;;;;;;22.10;47.60;100360.06;5073391;28;20399;-63
2021/10/29 15:53:45;;;;;;;5.40;2.88;;;;;;;22.08;47.74;100362.06;5072605;28;20502;-63
2021/10/29 16:01:50;;;;;;;11.02;5.80;;;;;;;22.01;48.59;100371.66;5073231;28;20032;-63